createdAt,value
2023-01-30T00:02:48.282Z,20.77
2023-01-30T00:05:51.458Z,20.95
2023-01-30T00:08:54.306Z,20.23
2023-01-30T00:11:57.270Z,21.73
2023-01-30T00:15:00.112Z,20.62
2023-01-30T00:18:03.223Z,21.65
2023-01-30T00:21:08.537Z,22.45
2023-01-30T00:24:11.476Z,21.23
2023-01-30T00:27:14.419Z,22.08
2023-01-30T00:30:17.799Z,21.40
2023-01-30T00:36:27.413Z,20.77
2023-01-30T00:39:30.284Z,23.00
2023-01-30T00:42:52.077Z,21.40
2023-01-30T00:46:13.840Z,20.55
2023-01-30T00:49:17.176Z,22.00
2023-01-30T00:52:20.369Z,18.90
2023-01-30T00:55:23.259Z,20.45
2023-01-30T00:58:26.611Z,21.92
2023-01-30T01:01:29.430Z,20.05
2023-01-30T01:04:32.286Z,22.67
2023-01-30T01:07:35.435Z,21.08
2023-01-30T01:10:38.668Z,22.87
2023-01-30T01:13:41.501Z,22.98
2023-01-30T01:16:44.304Z,23.98
2023-01-30T01:19:47.329Z,21.35
2023-01-30T01:22:54.548Z,23.77
2023-01-30T01:26:01.859Z,21.17
2023-01-30T01:29:05.831Z,18.30
2023-01-30T01:32:08.761Z,19.58
2023-01-30T01:35:11.853Z,21.55
2023-01-30T01:38:14.633Z,19.83
2023-01-30T01:41:18.556Z,20.17
2023-01-30T01:44:25.013Z,20.37
2023-01-30T01:47:28.628Z,21.30
2023-01-30T01:50:42.898Z,20.50
2023-01-30T01:54:03.525Z,20.98
2023-01-30T01:57:14.490Z,19.50
2023-01-30T02:00:20.705Z,20.08
2023-01-30T02:03:26.250Z,18.12
2023-01-30T02:06:30.175Z,21.20
2023-01-30T02:09:33.061Z,19.33
2023-01-30T02:12:38.265Z,18.98
2023-01-30T02:15:41.380Z,23.55
2023-01-30T02:22:32.697Z,19.87
2023-01-30T02:25:55.658Z,22.45
2023-01-30T02:29:04.867Z,21.73
2023-01-30T02:32:19.798Z,22.98
2023-01-30T02:35:42.240Z,25.75
2023-01-30T02:38:56.805Z,28.87
2023-01-30T02:42:21.852Z,22.30
2023-01-30T02:45:37.062Z,24.00
2023-01-30T02:48:46.605Z,22.17
2023-01-30T02:51:51.551Z,24.33
2023-01-30T02:54:54.195Z,21.90
2023-01-30T02:57:58.433Z,26.02
2023-01-30T03:01:21.084Z,23.42
2023-01-30T03:05:15.133Z,25.83
2023-01-30T03:08:35.010Z,27.80
2023-01-30T03:12:08.866Z,24.00
2023-01-30T03:15:22.027Z,24.85
2023-01-30T03:21:28.176Z,24.12
2023-01-30T03:24:31.544Z,23.00
2023-01-30T03:27:35.580Z,21.42
2023-01-30T03:30:38.856Z,26.17
2023-01-30T03:33:42.268Z,27.87
2023-01-30T03:36:47.275Z,28.35
2023-01-30T03:39:51.157Z,27.77
2023-01-30T03:42:54.318Z,27.55
2023-01-30T03:45:57.018Z,28.47
2023-01-30T03:49:00.249Z,29.17
2023-01-30T03:52:02.943Z,28.58
2023-01-30T03:55:06.647Z,31.37
2023-01-30T03:58:09.481Z,29.45
2023-01-30T04:01:12.712Z,31.77
2023-01-30T04:04:16.713Z,27.60
2023-01-30T04:07:20.278Z,26.77
2023-01-30T04:10:26.094Z,29.12
2023-01-30T04:13:29.016Z,29.58
2023-01-30T04:16:32.566Z,26.08
2023-01-30T04:19:40.627Z,25.50
2023-01-30T04:22:43.554Z,29.05
2023-01-30T04:25:47.064Z,30.33
2023-01-30T04:28:51.162Z,27.67
2023-01-30T04:31:54.096Z,31.83
2023-01-30T04:34:57.244Z,27.33
2023-01-30T04:38:00.087Z,27.87
2023-01-30T04:41:03.544Z,26.37
2023-01-30T04:44:07.397Z,27.92
2023-01-30T04:47:11.417Z,29.87
2023-01-30T04:50:14.383Z,32.05
2023-01-30T04:53:18.554Z,30.02
2023-01-30T04:56:21.459Z,29.35
2023-01-30T04:59:24.795Z,29.92
2023-01-30T05:02:27.685Z,27.55
2023-01-30T05:05:30.684Z,29.58
2023-01-30T05:08:33.498Z,28.48
2023-01-30T05:11:36.542Z,31.75
2023-01-30T05:14:41.388Z,28.30
2023-01-30T05:17:44.805Z,31.30
2023-01-30T05:20:48.013Z,30.12
2023-01-30T05:23:52.848Z,26.62
2023-01-30T05:26:55.673Z,30.17
2023-01-30T05:29:58.646Z,32.75
2023-01-30T05:33:02.484Z,33.10
2023-01-30T05:36:06.217Z,30.88
2023-01-30T05:39:09.756Z,32.08
2023-01-30T05:42:12.608Z,26.40
2023-01-30T05:45:16.767Z,26.62
2023-01-30T05:48:19.949Z,32.45
2023-01-30T05:51:26.314Z,31.37
2023-01-30T05:54:29.109Z,29.65
2023-01-30T05:57:31.896Z,30.90
2023-01-30T06:00:34.677Z,28.20
2023-01-30T06:03:38.601Z,32.67
2023-01-30T06:06:41.145Z,30.60
2023-01-30T06:09:44.229Z,31.12
2023-01-30T06:12:46.828Z,29.05
2023-01-30T06:15:50.067Z,31.00
2023-01-30T06:18:52.743Z,28.85
2023-01-30T06:21:58.315Z,32.33
2023-01-30T06:25:00.847Z,32.25
2023-01-30T06:28:04.198Z,32.72
2023-01-30T06:31:08.181Z,27.42
2023-01-30T06:34:12.076Z,27.95
2023-01-30T06:37:14.662Z,30.65
2023-01-30T06:40:18.129Z,35.25
2023-01-30T06:43:20.942Z,32.70
2023-01-30T06:46:24.148Z,27.80
2023-01-30T06:49:27.441Z,32.87
2023-01-30T06:52:30.601Z,32.85
2023-01-30T06:55:35.574Z,33.78
2023-01-30T06:58:38.858Z,32.63
2023-01-30T07:01:41.576Z,29.27
2023-01-30T07:04:44.773Z,32.25
2023-01-30T07:07:47.568Z,36.37
2023-01-30T07:10:50.763Z,30.40
2023-01-30T07:13:53.292Z,27.53
2023-01-30T07:16:56.461Z,32.58
2023-01-30T07:19:59.437Z,32.47
2023-01-30T07:23:04.300Z,30.05
2023-01-30T07:26:06.946Z,29.33
2023-01-30T07:29:10.446Z,33.63
2023-01-30T07:32:17.053Z,35.38
2023-01-30T07:35:21.804Z,33.60
2023-01-30T07:38:24.693Z,38.22
2023-01-30T07:41:28.096Z,35.08
2023-01-30T07:44:30.744Z,34.67
2023-01-30T07:47:33.966Z,31.08
2023-01-30T07:50:36.780Z,30.07
2023-01-30T07:53:40.113Z,29.12
2023-01-30T07:56:42.744Z,31.83
2023-01-30T07:59:45.962Z,31.90
2023-01-30T08:02:48.599Z,33.90
2023-01-30T08:05:53.707Z,33.65
2023-01-30T08:08:58.574Z,32.67
2023-01-30T08:12:01.823Z,31.27
2023-01-30T08:15:04.923Z,30.80
2023-01-30T08:18:08.167Z,30.83
2023-01-30T08:21:11.716Z,33.07
2023-01-30T08:24:15.298Z,35.55
2023-01-30T08:27:17.972Z,36.60
2023-01-30T08:30:22.638Z,35.70
2023-01-30T08:33:26.246Z,36.13
2023-01-30T08:36:29.385Z,43.80
2023-01-30T08:39:32.986Z,41.57
2023-01-30T08:42:36.659Z,41.80
2023-01-30T08:45:39.608Z,40.75
2023-01-30T08:48:50.029Z,39.67
2023-01-30T08:51:52.928Z,43.60
2023-01-30T08:54:56.226Z,44.03
2023-01-30T08:57:59.177Z,39.42
2023-01-30T09:04:07.975Z,29.42
2023-01-30T09:07:11.161Z,30.88
2023-01-30T09:10:14.070Z,25.10
2023-01-30T09:13:17.643Z,26.98
2023-01-30T09:16:20.245Z,25.07
2023-01-30T09:19:28.236Z,26.75
2023-01-30T09:22:30.864Z,28.23
2023-01-30T09:25:34.272Z,26.75
2023-01-30T09:28:37.175Z,29.67
2023-01-30T09:31:41.562Z,27.77
2023-01-30T09:34:45.351Z,31.45
2023-01-30T09:37:53.395Z,31.50
2023-01-30T09:40:59.024Z,30.25
2023-01-30T09:44:23.890Z,28.27
2023-01-30T09:48:01.701Z,31.90
2023-01-30T09:51:11.870Z,33.20
2023-01-30T09:54:21.981Z,28.83
2023-01-30T09:57:26.182Z,31.77
2023-01-30T10:03:42.494Z,33.28
2023-01-30T10:06:59.303Z,30.80
2023-01-30T10:10:20.973Z,28.55
2023-01-30T10:13:37.426Z,31.23
2023-01-30T10:16:55.926Z,31.55
2023-01-30T10:19:58.598Z,30.00
2023-01-30T10:23:17.363Z,30.45
2023-01-30T10:26:23.398Z,32.08
2023-01-30T10:29:33.305Z,29.35
2023-01-30T10:32:44.986Z,30.85
2023-01-30T10:36:02.685Z,32.90
2023-01-30T10:39:18.581Z,31.83
2023-01-30T10:42:29.654Z,32.20
2023-01-30T10:45:50.941Z,31.83
2023-01-30T10:49:11.521Z,29.83
2023-01-30T10:52:49.773Z,28.67
2023-01-30T10:56:00.099Z,30.45
2023-01-30T10:59:44.644Z,27.48
2023-01-30T11:03:10.610Z,30.10
2023-01-30T11:06:23.911Z,31.20
2023-01-30T11:12:58.238Z,26.98
2023-01-30T11:16:08.057Z,32.10
2023-01-30T11:19:21.224Z,29.12
2023-01-30T11:22:27.152Z,27.35
2023-01-30T11:25:29.948Z,33.45
2023-01-30T11:28:51.315Z,32.78
2023-01-30T11:31:54.874Z,29.95
2023-01-30T11:35:06.623Z,32.42
2023-01-30T11:38:24.601Z,29.60
2023-01-30T11:41:28.278Z,30.85
2023-01-30T11:44:37.692Z,34.38
2023-01-30T11:48:00.676Z,33.63
2023-01-30T11:51:11.131Z,30.77
2023-01-30T11:54:19.611Z,30.50
2023-01-30T11:57:23.527Z,28.42
2023-01-30T12:00:37.368Z,30.90
2023-01-30T12:03:47.863Z,31.02
2023-01-30T12:07:06.318Z,26.87
2023-01-30T12:10:30.228Z,29.87
2023-01-30T12:16:57.887Z,29.63
2023-01-30T12:20:03.732Z,32.03
2023-01-30T12:23:13.103Z,28.75
2023-01-30T12:26:18.786Z,29.20
2023-01-30T12:29:41.908Z,30.08
2023-01-30T12:32:45.340Z,31.02
2023-01-30T12:36:17.168Z,31.98
2023-01-30T12:39:25.240Z,24.70
2023-01-30T12:42:58.400Z,26.52
2023-01-30T12:46:27.071Z,28.05
2023-01-30T12:49:45.259Z,26.98
2023-01-30T12:53:00.266Z,26.98
2023-01-30T12:56:09.250Z,26.60
2023-01-30T12:59:24.525Z,26.62
2023-01-30T13:02:45.343Z,25.98
2023-01-30T13:05:56.236Z,32.20
2023-01-30T13:09:17.942Z,28.12
2023-01-30T13:12:48.617Z,32.25
2023-01-30T13:16:32.063Z,25.90
2023-01-30T13:19:51.211Z,28.23
2023-01-30T13:23:04.727Z,25.95
2023-01-30T13:26:11.814Z,27.27
2023-01-30T13:29:20.689Z,26.08
2023-01-30T13:32:48.481Z,27.27
2023-01-30T13:36:02.591Z,26.55
2023-01-30T13:39:25.779Z,25.65
2023-01-30T13:42:49.864Z,27.80
2023-01-30T13:45:56.934Z,26.60
2023-01-30T13:49:44.461Z,29.75
2023-01-30T13:53:00.920Z,25.48
2023-01-30T13:56:32.730Z,27.13
2023-01-30T13:59:57.698Z,28.50
2023-01-30T14:03:03.759Z,27.65
2023-01-30T14:06:26.811Z,29.65
2023-01-30T14:09:33.601Z,27.00
2023-01-30T14:12:46.574Z,26.85
2023-01-30T14:16:04.649Z,28.38
2023-01-30T14:19:42.273Z,22.98
2023-01-30T14:22:47.677Z,24.00
2023-01-30T14:25:53.371Z,28.67
2023-01-30T14:28:56.243Z,23.12
2023-01-30T14:35:01.952Z,21.98
2023-01-30T14:38:13.071Z,20.67
2023-01-30T14:41:25.560Z,25.12
2023-01-30T14:44:59.956Z,25.45
2023-01-30T14:48:37.728Z,23.58
2023-01-30T14:51:42.676Z,22.42
2023-01-30T14:54:50.359Z,26.42
2023-01-30T14:58:02.818Z,27.23
2023-01-30T15:01:05.616Z,27.02
2023-01-30T15:04:16.466Z,24.85
2023-01-30T15:07:24.853Z,21.52
2023-01-30T15:10:49.938Z,25.00
2023-01-30T15:14:01.522Z,23.90
2023-01-30T15:17:37.821Z,23.65
2023-01-30T15:21:18.200Z,27.13
2023-01-30T15:24:51.586Z,24.08
2023-01-30T15:28:08.084Z,23.75
2023-01-30T15:31:15.317Z,22.17
2023-01-30T15:34:24.282Z,24.02
2023-01-30T15:37:30.477Z,25.12
2023-01-30T15:40:33.438Z,26.67
2023-01-30T15:44:21.091Z,22.67
2023-01-30T15:47:45.616Z,21.62
2023-01-30T15:50:53.881Z,23.98
2023-01-30T15:53:58.252Z,22.25
2023-01-30T15:57:02.749Z,29.17
2023-01-30T16:00:08.564Z,26.17
2023-01-30T16:03:20.535Z,23.30
2023-01-30T16:06:35.708Z,22.20
2023-01-30T16:09:38.517Z,24.83
2023-01-30T16:12:42.114Z,22.27
2023-01-30T16:15:54.539Z,26.92
2023-01-30T16:19:02.137Z,27.25
2023-01-30T16:22:15.539Z,22.67
2023-01-30T16:25:22.692Z,25.00
2023-01-30T16:28:28.442Z,21.30
2023-01-30T16:31:33.614Z,27.23
2023-01-30T16:34:38.454Z,21.10
2023-01-30T16:37:41.513Z,24.12
2023-01-30T16:40:46.438Z,24.15
2023-01-30T16:44:08.277Z,26.83
2023-01-30T16:47:28.952Z,21.77
2023-01-30T16:50:31.882Z,27.98
2023-01-30T16:53:35.087Z,24.70
2023-01-30T16:56:38.231Z,25.55
2023-01-30T16:59:41.355Z,22.70
2023-01-30T17:02:57.466Z,24.08
2023-01-30T17:06:07.468Z,22.70
2023-01-30T17:09:41.886Z,24.77
2023-01-30T17:12:49.634Z,24.10
2023-01-30T17:15:52.653Z,25.12
2023-01-30T17:18:58.249Z,19.58
2023-01-30T17:22:04.642Z,21.62
2023-01-30T17:25:32.915Z,20.88
2023-01-30T17:28:40.417Z,16.70
2023-01-30T17:31:49.963Z,19.20
2023-01-30T17:34:52.907Z,21.02
2023-01-30T17:38:04.891Z,21.60
2023-01-30T17:41:18.460Z,20.70
2023-01-30T17:44:21.493Z,20.12
2023-01-30T17:47:24.457Z,20.48
2023-01-30T17:50:28.583Z,19.87
2023-01-30T17:53:32.517Z,20.05
2023-01-30T17:56:38.442Z,20.12
2023-01-30T17:59:41.695Z,20.50
2023-01-30T18:02:44.883Z,19.30
2023-01-30T18:08:51.695Z,20.52
2023-01-30T18:11:54.692Z,17.10
2023-01-30T18:14:58.688Z,17.65
2023-01-30T18:18:01.899Z,17.17
2023-01-30T18:21:06.245Z,14.23
2023-01-30T18:24:09.724Z,16.40
2023-01-30T18:30:18.232Z,16.62
2023-01-30T18:33:21.439Z,17.58
2023-01-30T18:36:24.493Z,15.38
2023-01-30T18:39:27.438Z,21.23
2023-01-30T18:42:30.474Z,22.17
2023-01-30T18:45:36.020Z,16.48
2023-01-30T18:48:39.054Z,16.23
2023-01-30T18:51:42.062Z,18.42
2023-01-30T18:54:44.934Z,19.83
2023-01-30T18:57:48.328Z,18.40
2023-01-30T19:03:56.831Z,16.35
2023-01-30T19:06:59.725Z,15.70
2023-01-30T19:10:03.698Z,14.07
2023-01-30T19:13:25.401Z,14.90
2023-01-30T19:16:30.952Z,16.05
2023-01-30T19:19:33.880Z,14.68
2023-01-30T19:22:37.143Z,14.93
2023-01-30T19:25:40.024Z,15.75
2023-01-30T19:28:44.755Z,16.10
2023-01-30T19:31:47.915Z,15.70
2023-01-30T19:37:57.525Z,14.87
2023-01-30T19:41:00.572Z,13.45
2023-01-30T19:44:06.898Z,9.88
2023-01-30T19:47:10.155Z,10.50
2023-01-30T19:50:13.480Z,7.97
2023-01-30T19:53:16.475Z,8.40
2023-01-30T19:56:21.859Z,7.93
2023-01-30T19:59:24.787Z,6.05
2023-01-30T20:02:30.008Z,7.47
2023-01-30T20:05:33.555Z,7.53
2023-01-30T20:08:37.356Z,7.93
2023-01-30T20:11:43.641Z,7.07
2023-01-30T20:14:46.389Z,7.85
2023-01-30T20:17:49.611Z,8.07
2023-01-30T20:20:52.594Z,6.70
2023-01-30T20:23:56.718Z,7.10
2023-01-30T20:26:59.690Z,9.80
2023-01-30T20:30:03.006Z,10.23
2023-01-30T20:33:06.003Z,8.75
2023-01-30T20:36:12.033Z,7.78
2023-01-30T20:39:16.951Z,6.68
2023-01-30T20:42:20.067Z,7.15
2023-01-30T20:45:22.631Z,6.62
2023-01-30T20:48:25.739Z,7.30
2023-01-30T20:51:30.694Z,5.82
2023-01-30T20:54:37.716Z,6.43
2023-01-30T20:57:43.158Z,4.95
2023-01-30T21:00:46.445Z,7.97
2023-01-30T21:03:51.436Z,6.00
2023-01-30T21:06:54.778Z,5.65
2023-01-30T21:09:57.364Z,5.55
2023-01-30T21:13:00.974Z,4.80
2023-01-30T21:16:08.083Z,5.72
2023-01-30T21:19:15.189Z,6.95
2023-01-30T21:22:18.019Z,7.03
2023-01-30T21:25:22.921Z,9.93
2023-01-30T21:28:25.566Z,5.93
2023-01-30T21:31:30.851Z,5.28
2023-01-30T21:34:35.217Z,5.43
2023-01-30T21:37:57.913Z,5.00
2023-01-30T21:41:19.076Z,5.00
2023-01-30T21:44:30.932Z,4.45
2023-01-30T21:47:33.683Z,4.82
2023-01-30T21:50:36.880Z,5.20
2023-01-30T21:53:39.955Z,4.80
2023-01-30T21:56:43.823Z,4.70
2023-01-30T21:59:46.389Z,5.20
2023-01-30T22:02:49.995Z,5.00
2023-01-30T22:05:52.876Z,4.72
2023-01-30T22:08:56.848Z,4.65
2023-01-30T22:11:59.880Z,4.82
2023-01-30T22:15:02.836Z,5.10
2023-01-30T22:18:05.818Z,6.05
2023-01-30T22:21:12.288Z,4.57
2023-01-30T22:24:15.368Z,5.70
2023-01-30T22:27:18.181Z,4.32
2023-01-30T22:30:21.216Z,6.28
2023-01-30T22:33:24.044Z,5.60
2023-01-30T22:36:29.278Z,4.20
2023-01-30T22:39:32.129Z,5.05
2023-01-30T22:42:35.243Z,4.28
2023-01-30T22:45:38.272Z,4.18
2023-01-30T22:48:42.127Z,5.55
2023-01-30T22:51:44.992Z,5.65
2023-01-30T22:54:47.826Z,4.75
2023-01-30T22:57:50.637Z,4.72
2023-01-30T23:00:53.475Z,5.07
2023-01-30T23:03:59.856Z,5.30
2023-01-30T23:07:02.795Z,4.00
2023-01-30T23:10:06.046Z,3.80
2023-01-30T23:13:08.992Z,3.30
2023-01-30T23:16:13.359Z,3.12
2023-01-30T23:19:16.157Z,5.18
2023-01-30T23:22:19.066Z,3.75
2023-01-30T23:25:22.244Z,4.45
2023-01-30T23:28:25.178Z,3.35
2023-01-30T23:31:29.115Z,4.40
2023-01-30T23:34:31.932Z,3.10
2023-01-30T23:38:06.920Z,5.90
2023-01-30T23:41:10.576Z,3.53
2023-01-30T23:44:13.440Z,3.22
2023-01-30T23:47:16.559Z,3.58
2023-01-30T23:50:19.788Z,4.37
2023-01-30T23:53:22.704Z,3.95
2023-01-30T23:56:27.912Z,4.37
2023-01-30T23:59:31.002Z,4.85
